sensor_id;sensor_type;location;lat;lon;timestamp;pressure;altitude;pressure_sealevel;temperature;humidity
23574;BME280;11965;53.640;10.050;2022-08-05T00:01:41;101211.66;;;20.88;89.04
23574;BME280;11965;53.640;10.050;2022-08-05T00:04:07;101215.66;;;20.92;88.01
23574;BME280;11965;53.640;10.050;2022-08-05T00:06:32;101219.44;;;20.98;87.30
23574;BME280;11965;53.640;10.050;2022-08-05T00:08:59;101216.69;;;20.86;87.68
23574;BME280;11965;53.640;10.050;2022-08-05T00:11:25;101228.31;;;20.90;87.16
23574;BME280;11965;53.640;10.050;2022-08-05T00:13:50;101232.41;;;20.82;86.40
23574;BME280;11965;53.640;10.050;2022-08-05T00:16:17;101238.19;;;20.76;86.33
23574;BME280;11965;53.640;10.050;2022-08-05T00:18:45;101233.47;;;20.64;85.88
23574;BME280;11965;53.640;10.050;2022-08-05T00:21:11;101242.97;;;20.75;85.82
23574;BME280;11965;53.640;10.050;2022-08-05T00:23:38;101234.78;;;20.73;84.73
23574;BME280;11965;53.640;10.050;2022-08-05T00:26:04;101235.09;;;20.60;83.51
23574;BME280;11965;53.640;10.050;2022-08-05T00:28:30;101234.75;;;20.57;85.30
23574;BME280;11965;53.640;10.050;2022-08-05T00:30:56;101224.09;;;20.47;83.44
23574;BME280;11965;53.640;10.050;2022-08-05T00:33:21;101231.06;;;20.44;84.16
23574;BME280;11965;53.640;10.050;2022-08-05T00:35:47;101235.84;;;20.44;84.15
23574;BME280;11965;53.640;10.050;2022-08-05T00:38:12;101236.88;;;20.38;82.42
23574;BME280;11965;53.640;10.050;2022-08-05T00:40:52;101234.50;;;20.46;82.16
23574;BME280;11965;53.640;10.050;2022-08-05T00:43:18;101239.78;;;20.43;81.26
23574;BME280;11965;53.640;10.050;2022-08-05T00:45:43;101240.50;;;20.50;80.47
23574;BME280;11965;53.640;10.050;2022-08-05T00:48:21;101247.06;;;20.27;80.49
23574;BME280;11965;53.640;10.050;2022-08-05T00:50:50;101247.69;;;20.17;80.34
23574;BME280;11965;53.640;10.050;2022-08-05T00:53:18;101250.06;;;20.08;82.46
23574;BME280;11965;53.640;10.050;2022-08-05T00:55:44;101256.78;;;20.07;79.24
23574;BME280;11965;53.640;10.050;2022-08-05T00:58:11;101255.94;;;20.07;79.68
23574;BME280;11965;53.640;10.050;2022-08-05T01:00:38;101255.34;;;20.05;79.75
23574;BME280;11965;53.640;10.050;2022-08-05T01:03:04;101258.97;;;20.17;78.31
23574;BME280;11965;53.640;10.050;2022-08-05T01:05:30;101250.66;;;20.11;78.94
23574;BME280;11965;53.640;10.050;2022-08-05T01:07:55;101246.22;;;20.15;75.57
23574;BME280;11965;53.640;10.050;2022-08-05T01:10:28;101244.31;;;20.03;76.11
23574;BME280;11965;53.640;10.050;2022-08-05T01:12:57;101258.03;;;20.00;77.26
23574;BME280;11965;53.640;10.050;2022-08-05T01:15:31;101258.75;;;20.07;76.85
23574;BME280;11965;53.640;10.050;2022-08-05T01:18:10;101247.75;;;20.05;76.51
23574;BME280;11965;53.640;10.050;2022-08-05T01:26:06;101246.22;;;20.15;76.55
23574;BME280;11965;53.640;10.050;2022-08-05T01:29:02;101234.09;;;20.26;75.11
23574;BME280;11965;53.640;10.050;2022-08-05T01:34:16;101230.13;;;20.10;75.18
23574;BME280;11965;53.640;10.050;2022-08-05T01:36:46;101191.56;;;20.11;74.12
23574;BME280;11965;53.640;10.050;2022-08-05T01:39:15;101178.56;;;20.21;74.44
23574;BME280;11965;53.640;10.050;2022-08-05T01:41:42;101186.69;;;20.06;74.50
23574;BME280;11965;53.640;10.050;2022-08-05T01:44:09;101193.53;;;20.10;74.31
23574;BME280;11965;53.640;10.050;2022-08-05T01:46:38;101182.84;;;20.12;74.60
23574;BME280;11965;53.640;10.050;2022-08-05T01:49:05;101167.53;;;20.20;73.38
23574;BME280;11965;53.640;10.050;2022-08-05T01:51:34;101172.22;;;20.14;74.69
23574;BME280;11965;53.640;10.050;2022-08-05T01:54:02;101173.84;;;20.10;74.42
23574;BME280;11965;53.640;10.050;2022-08-05T01:56:32;101159.47;;;20.23;73.95
23574;BME280;11965;53.640;10.050;2022-08-05T01:59:01;101141.03;;;20.16;73.13
23574;BME280;11965;53.640;10.050;2022-08-05T02:01:28;101123.53;;;20.14;72.88
23574;BME280;11965;53.640;10.050;2022-08-05T02:03:55;101113.38;;;20.13;73.99
23574;BME280;11965;53.640;10.050;2022-08-05T02:06:21;101126.09;;;20.15;74.13
23574;BME280;11965;53.640;10.050;2022-08-05T02:08:47;101126.00;;;20.10;73.11
23574;BME280;11965;53.640;10.050;2022-08-05T02:11:16;101122.81;;;20.06;74.16
23574;BME280;11965;53.640;10.050;2022-08-05T02:14:08;101125.28;;;20.03;74.17
23574;BME280;11965;53.640;10.050;2022-08-05T02:16:49;101126.56;;;20.12;73.90
23574;BME280;11965;53.640;10.050;2022-08-05T02:19:34;101115.19;;;20.19;73.59
23574;BME280;11965;53.640;10.050;2022-08-05T02:22:15;101105.28;;;20.16;72.48
23574;BME280;11965;53.640;10.050;2022-08-05T02:24:45;101100.31;;;20.06;75.22
23574;BME280;11965;53.640;10.050;2022-08-05T02:27:12;101082.38;;;19.96;75.20
23574;BME280;11965;53.640;10.050;2022-08-05T02:29:40;101067.81;;;19.99;74.62
23574;BME280;11965;53.640;10.050;2022-08-05T02:32:08;101080.44;;;19.96;75.20
23574;BME280;11965;53.640;10.050;2022-08-05T02:34:36;101093.63;;;19.96;75.03
23574;BME280;11965;53.640;10.050;2022-08-05T02:37:04;101077.44;;;20.03;74.80
23574;BME280;11965;53.640;10.050;2022-08-05T02:39:36;101088.09;;;20.01;74.82
23574;BME280;11965;53.640;10.050;2022-08-05T02:42:04;101088.72;;;20.03;75.66
23574;BME280;11965;53.640;10.050;2022-08-05T02:44:33;101096.03;;;20.04;74.01
23574;BME280;11965;53.640;10.050;2022-08-05T02:47:04;101165.78;;;20.02;75.26
23574;BME280;11965;53.640;10.050;2022-08-05T02:49:33;101234.00;;;20.09;74.05
23574;BME280;11965;53.640;10.050;2022-08-05T02:52:00;101228.03;;;20.05;75.41
23574;BME280;11965;53.640;10.050;2022-08-05T02:54:27;101197.03;;;19.65;81.38
23574;BME280;11965;53.640;10.050;2022-08-05T02:56:54;101192.16;;;19.37;87.84
23574;BME280;11965;53.640;10.050;2022-08-05T02:59:22;101183.97;;;19.00;92.91
23574;BME280;11965;53.640;10.050;2022-08-05T03:01:49;101179.91;;;18.84;96.16
23574;BME280;11965;53.640;10.050;2022-08-05T03:04:17;101181.34;;;18.75;100.00
23574;BME280;11965;53.640;10.050;2022-08-05T03:06:44;101165.88;;;18.84;99.25
23574;BME280;11965;53.640;10.050;2022-08-05T03:09:11;101161.81;;;18.80;100.00
23574;BME280;11965;53.640;10.050;2022-08-05T03:11:41;101154.56;;;18.61;100.00
23574;BME280;11965;53.640;10.050;2022-08-05T03:14:07;101151.53;;;18.74;100.00
23574;BME280;11965;53.640;10.050;2022-08-05T03:16:32;101149.56;;;18.63;100.00
23574;BME280;11965;53.640;10.050;2022-08-05T03:19:02;101149.56;;;18.63;100.00
23574;BME280;11965;53.640;10.050;2022-08-05T03:21:27;101134.06;;;18.60;100.00
23574;BME280;11965;53.640;10.050;2022-08-05T03:23:53;101142.97;;;18.57;100.00
23574;BME280;11965;53.640;10.050;2022-08-05T03:26:19;101162.56;;;18.45;100.00
23574;BME280;11965;53.640;10.050;2022-08-05T03:28:45;101180.38;;;18.39;100.00
23574;BME280;11965;53.640;10.050;2022-08-05T03:31:11;101181.56;;;18.31;100.00
23574;BME280;11965;53.640;10.050;2022-08-05T03:33:37;101182.88;;;18.29;100.00
23574;BME280;11965;53.640;10.050;2022-08-05T03:36:04;101193.25;;;18.28;100.00
23574;BME280;11965;53.640;10.050;2022-08-05T03:38:30;101191.41;;;18.22;100.00
23574;BME280;11965;53.640;10.050;2022-08-05T03:40:55;101182.00;;;18.17;100.00
23574;BME280;11965;53.640;10.050;2022-08-05T03:43:21;101187.84;;;18.15;100.00
23574;BME280;11965;53.640;10.050;2022-08-05T03:45:51;101183.06;;;18.16;100.00
23574;BME280;11965;53.640;10.050;2022-08-05T03:48:19;101178.41;;;18.09;100.00
23574;BME280;11965;53.640;10.050;2022-08-05T03:51:16;101167.34;;;18.15;100.00
23574;BME280;11965;53.640;10.050;2022-08-05T03:53:51;101174.06;;;18.14;100.00
23574;BME280;11965;53.640;10.050;2022-08-05T03:56:24;101165.16;;;18.17;100.00
23574;BME280;11965;53.640;10.050;2022-08-05T03:58:52;101178.94;;;18.18;100.00
23574;BME280;11965;53.640;10.050;2022-08-05T04:01:20;101153.31;;;18.15;100.00
23574;BME280;11965;53.640;10.050;2022-08-05T04:03:48;101151.72;;;18.19;100.00
23574;BME280;11965;53.640;10.050;2022-08-05T04:06:14;101160.03;;;18.14;100.00
23574;BME280;11965;53.640;10.050;2022-08-05T04:08:42;101143.19;;;18.14;100.00
23574;BME280;11965;53.640;10.050;2022-08-05T04:11:08;101156.97;;;18.15;100.00
23574;BME280;11965;53.640;10.050;2022-08-05T04:13:39;101159.41;;;18.12;100.00
23574;BME280;11965;53.640;10.050;2022-08-05T04:16:06;101171.28;;;18.25;100.00
23574;BME280;11965;53.640;10.050;2022-08-05T04:18:33;101165.31;;;18.22;100.00
23574;BME280;11965;53.640;10.050;2022-08-05T04:20:59;101156.91;;;18.22;100.00
23574;BME280;11965;53.640;10.050;2022-08-05T04:23:27;101162.72;;;18.20;100.00
23574;BME280;11965;53.640;10.050;2022-08-05T04:25:53;101162.94;;;18.19;100.00
23574;BME280;11965;53.640;10.050;2022-08-05T04:28:20;101159.22;;;18.25;100.00
23574;BME280;11965;53.640;10.050;2022-08-05T04:30:46;101183.50;;;18.31;100.00
23574;BME280;11965;53.640;10.050;2022-08-05T04:33:14;101187.91;;;18.27;100.00
23574;BME280;11965;53.640;10.050;2022-08-05T04:35:41;101193.19;;;18.35;100.00
23574;BME280;11965;53.640;10.050;2022-08-05T04:38:06;101211.09;;;18.34;100.00
23574;BME280;11965;53.640;10.050;2022-08-05T04:40:36;101208.28;;;18.34;100.00
23574;BME280;11965;53.640;10.050;2022-08-05T04:43:02;101198.72;;;18.23;100.00
23574;BME280;11965;53.640;10.050;2022-08-05T04:45:28;101203.91;;;18.38;100.00
23574;BME280;11965;53.640;10.050;2022-08-05T04:47:53;101213.16;;;18.27;100.00
23574;BME280;11965;53.640;10.050;2022-08-05T04:50:19;101208.16;;;18.10;100.00
23574;BME280;11965;53.640;10.050;2022-08-05T04:52:44;101219.53;;;18.16;100.00
23574;BME280;11965;53.640;10.050;2022-08-05T04:55:10;101223.81;;;18.18;100.00
23574;BME280;11965;53.640;10.050;2022-08-05T04:57:36;101226.59;;;18.06;100.00
23574;BME280;11965;53.640;10.050;2022-08-05T05:00:05;101234.03;;;18.13;100.00
23574;BME280;11965;53.640;10.050;2022-08-05T05:02:30;101236.63;;;18.14;100.00
23574;BME280;11965;53.640;10.050;2022-08-05T05:04:56;101256.25;;;18.14;100.00
23574;BME280;11965;53.640;10.050;2022-08-05T05:07:22;101259.13;;;18.07;100.00
23574;BME280;11965;53.640;10.050;2022-08-05T05:09:47;101258.22;;;18.14;100.00
23574;BME280;11965;53.640;10.050;2022-08-05T05:12:13;101262.09;;;18.13;100.00
23574;BME280;11965;53.640;10.050;2022-08-05T05:14:38;101264.22;;;18.17;100.00
23574;BME280;11965;53.640;10.050;2022-08-05T05:17:04;101267.56;;;18.07;100.00
23574;BME280;11965;53.640;10.050;2022-08-05T05:19:30;101267.53;;;18.26;100.00
23574;BME280;11965;53.640;10.050;2022-08-05T05:21:55;101248.53;;;18.28;100.00
23574;BME280;11965;53.640;10.050;2022-08-05T05:24:21;101258.66;;;18.29;100.00
23574;BME280;11965;53.640;10.050;2022-08-05T05:26:47;101256.00;;;18.34;100.00
23574;BME280;11965;53.640;10.050;2022-08-05T05:29:13;101243.38;;;18.43;100.00
23574;BME280;11965;53.640;10.050;2022-08-05T05:31:38;101247.53;;;18.52;100.00
23574;BME280;11965;53.640;10.050;2022-08-05T05:34:04;101242.69;;;18.60;100.00
23574;BME280;11965;53.640;10.050;2022-08-05T05:36:30;101240.16;;;18.70;100.00
23574;BME280;11965;53.640;10.050;2022-08-05T05:38:56;101239.28;;;18.69;100.00
23574;BME280;11965;53.640;10.050;2022-08-05T05:41:22;101253.50;;;18.74;100.00
23574;BME280;11965;53.640;10.050;2022-08-05T05:43:47;101258.81;;;18.64;100.00
23574;BME280;11965;53.640;10.050;2022-08-05T05:46:13;101257.25;;;18.68;100.00
23574;BME280;11965;53.640;10.050;2022-08-05T05:48:38;101242.34;;;18.68;100.00
23574;BME280;11965;53.640;10.050;2022-08-05T05:51:06;101230.00;;;18.69;100.00
23574;BME280;11965;53.640;10.050;2022-08-05T05:53:33;101239.34;;;18.51;100.00
23574;BME280;11965;53.640;10.050;2022-08-05T05:55:59;101246.84;;;18.57;100.00
23574;BME280;11965;53.640;10.050;2022-08-05T05:58:25;101242.63;;;18.48;100.00
23574;BME280;11965;53.640;10.050;2022-08-05T06:00:50;101239.97;;;18.53;100.00
23574;BME280;11965;53.640;10.050;2022-08-05T06:03:16;101243.03;;;18.51;100.00
23574;BME280;11965;53.640;10.050;2022-08-05T06:05:42;101263.16;;;18.48;100.00
23574;BME280;11965;53.640;10.050;2022-08-05T06:08:07;101281.69;;;18.49;100.00
23574;BME280;11965;53.640;10.050;2022-08-05T06:10:34;101277.03;;;18.43;100.00
23574;BME280;11965;53.640;10.050;2022-08-05T06:13:00;101289.66;;;18.52;100.00
23574;BME280;11965;53.640;10.050;2022-08-05T06:15:25;101279.78;;;18.62;100.00
23574;BME280;11965;53.640;10.050;2022-08-05T06:17:51;101284.53;;;18.61;100.00
23574;BME280;11965;53.640;10.050;2022-08-05T06:20:17;101284.31;;;18.63;100.00
23574;BME280;11965;53.640;10.050;2022-08-05T06:22:42;101269.81;;;18.66;100.00
23574;BME280;11965;53.640;10.050;2022-08-05T06:25:08;101267.97;;;18.60;100.00
23574;BME280;11965;53.640;10.050;2022-08-05T06:27:34;101263.66;;;18.75;100.00
23574;BME280;11965;53.640;10.050;2022-08-05T06:30:00;101269.44;;;18.92;100.00
23574;BME280;11965;53.640;10.050;2022-08-05T06:32:26;101256.38;;;18.98;100.00
23574;BME280;11965;53.640;10.050;2022-08-05T06:34:53;101251.88;;;19.09;100.00
23574;BME280;11965;53.640;10.050;2022-08-05T06:37:19;101264.38;;;19.13;100.00
23574;BME280;11965;53.640;10.050;2022-08-05T06:39:44;101267.41;;;19.11;100.00
23574;BME280;11965;53.640;10.050;2022-08-05T06:42:10;101270.16;;;19.53;100.00
23574;BME280;11965;53.640;10.050;2022-08-05T06:44:38;101262.94;;;19.69;100.00
23574;BME280;11965;53.640;10.050;2022-08-05T06:47:03;101271.16;;;19.71;100.00
23574;BME280;11965;53.640;10.050;2022-08-05T06:49:29;101271.88;;;19.66;99.23
23574;BME280;11965;53.640;10.050;2022-08-05T06:51:54;101271.25;;;19.64;99.74
23574;BME280;11965;53.640;10.050;2022-08-05T06:54:20;101269.78;;;19.61;100.00
23574;BME280;11965;53.640;10.050;2022-08-05T06:56:45;101276.75;;;19.59;98.84
23574;BME280;11965;53.640;10.050;2022-08-05T06:59:11;101282.63;;;19.69;99.96
23574;BME280;11965;53.640;10.050;2022-08-05T07:01:39;101297.94;;;19.73;100.00
23574;BME280;11965;53.640;10.050;2022-08-05T07:04:05;101282.88;;;19.79;100.00
23574;BME280;11965;53.640;10.050;2022-08-05T07:06:30;101284.09;;;19.83;100.00
23574;BME280;11965;53.640;10.050;2022-08-05T07:08:56;101286.28;;;20.05;100.00
23574;BME280;11965;53.640;10.050;2022-08-05T07:11:22;101277.06;;;20.21;100.00
23574;BME280;11965;53.640;10.050;2022-08-05T07:13:48;101283.03;;;20.37;98.71
23574;BME280;11965;53.640;10.050;2022-08-05T07:16:32;101284.28;;;20.29;97.34
23574;BME280;11965;53.640;10.050;2022-08-05T07:19:17;101287.19;;;20.34;97.04
23574;BME280;11965;53.640;10.050;2022-08-05T07:21:48;101290.38;;;20.38;96.93
23574;BME280;11965;53.640;10.050;2022-08-05T07:24:15;101273.97;;;20.35;96.17
23574;BME280;11965;53.640;10.050;2022-08-05T07:26:41;101279.28;;;20.19;96.38
23574;BME280;11965;53.640;10.050;2022-08-05T07:29:07;101269.13;;;20.18;96.35
23574;BME280;11965;53.640;10.050;2022-08-05T07:31:34;101276.34;;;20.14;96.94
23574;BME280;11965;53.640;10.050;2022-08-05T07:33:59;101277.34;;;20.08;97.03
23574;BME280;11965;53.640;10.050;2022-08-05T07:36:25;101283.97;;;20.02;98.28
23574;BME280;11965;53.640;10.050;2022-08-05T07:38:51;101279.81;;;20.04;99.21
23574;BME280;11965;53.640;10.050;2022-08-05T07:41:19;101280.66;;;20.05;97.78
23574;BME280;11965;53.640;10.050;2022-08-05T07:43:46;101275.28;;;19.80;99.06
23574;BME280;11965;53.640;10.050;2022-08-05T07:46:12;101270.53;;;19.80;98.34
23574;BME280;11965;53.640;10.050;2022-08-05T07:48:37;101277.00;;;19.81;100.00
23574;BME280;11965;53.640;10.050;2022-08-05T07:51:03;101273.94;;;19.94;99.73
23574;BME280;11965;53.640;10.050;2022-08-05T07:53:30;101268.06;;;19.96;99.35
23574;BME280;11965;53.640;10.050;2022-08-05T07:55:55;101266.84;;;19.92;100.00
23574;BME280;11965;53.640;10.050;2022-08-05T07:58:21;101269.28;;;20.00;99.82
23574;BME280;11965;53.640;10.050;2022-08-05T08:00:46;101275.19;;;19.86;98.85
23574;BME280;11965;53.640;10.050;2022-08-05T08:03:13;101283.25;;;19.83;100.00
23574;BME280;11965;53.640;10.050;2022-08-05T08:05:39;101293.91;;;19.81;100.00
23574;BME280;11965;53.640;10.050;2022-08-05T08:08:08;101294.63;;;19.76;100.00
23574;BME280;11965;53.640;10.050;2022-08-05T08:10:34;101298.25;;;19.65;100.00
23574;BME280;11965;53.640;10.050;2022-08-05T08:12:59;101286.44;;;19.75;100.00
23574;BME280;11965;53.640;10.050;2022-08-05T08:15:25;101291.81;;;19.76;100.00
23574;BME280;11965;53.640;10.050;2022-08-05T08:17:50;101300.00;;;19.78;100.00
23574;BME280;11965;53.640;10.050;2022-08-05T08:20:15;101306.38;;;19.73;100.00
23574;BME280;11965;53.640;10.050;2022-08-05T08:22:41;101290.94;;;19.64;100.00
23574;BME280;11965;53.640;10.050;2022-08-05T08:25:07;101277.34;;;19.49;100.00
23574;BME280;11965;53.640;10.050;2022-08-05T08:27:33;101286.41;;;19.63;100.00
23574;BME280;11965;53.640;10.050;2022-08-05T08:29:58;101293.66;;;19.71;100.00
23574;BME280;11965;53.640;10.050;2022-08-05T08:32:24;101292.44;;;19.78;100.00
23574;BME280;11965;53.640;10.050;2022-08-05T08:34:51;101290.94;;;19.64;100.00
23574;BME280;11965;53.640;10.050;2022-08-05T08:37:17;101292.88;;;19.63;100.00
23574;BME280;11965;53.640;10.050;2022-08-05T08:39:42;101288.50;;;19.56;100.00
23574;BME280;11965;53.640;10.050;2022-08-05T08:42:08;101283.09;;;19.42;100.00
23574;BME280;11965;53.640;10.050;2022-08-05T08:44:35;101286.63;;;19.50;100.00
23574;BME280;11965;53.640;10.050;2022-08-05T08:47:02;101287.13;;;19.58;100.00
23574;BME280;11965;53.640;10.050;2022-08-05T08:49:29;101302.19;;;19.64;100.00
23574;BME280;11965;53.640;10.050;2022-08-05T08:52:05;101300.72;;;19.61;100.00
23574;BME280;11965;53.640;10.050;2022-08-05T08:54:33;101305.47;;;19.49;100.00
23574;BME280;11965;53.640;10.050;2022-08-05T08:57:00;101295.69;;;19.40;100.00
23574;BME280;11965;53.640;10.050;2022-08-05T08:59:26;101298.22;;;19.30;100.00
23574;BME280;11965;53.640;10.050;2022-08-05T09:01:52;101305.41;;;19.26;100.00
23574;BME280;11965;53.640;10.050;2022-08-05T09:04:18;101311.44;;;19.29;100.00
23574;BME280;11965;53.640;10.050;2022-08-05T09:06:44;101317.00;;;19.17;100.00
23574;BME280;11965;53.640;10.050;2022-08-05T09:09:09;101327.06;;;19.25;100.00
23574;BME280;11965;53.640;10.050;2022-08-05T09:11:35;101334.06;;;19.34;100.00
23574;BME280;11965;53.640;10.050;2022-08-05T09:14:01;101342.09;;;19.31;100.00
23574;BME280;11965;53.640;10.050;2022-08-05T09:16:27;101350.31;;;19.32;100.00
23574;BME280;11965;53.640;10.050;2022-08-05T09:18:53;101352.25;;;19.32;100.00
23574;BME280;11965;53.640;10.050;2022-08-05T09:21:20;101351.16;;;19.33;100.00
23574;BME280;11965;53.640;10.050;2022-08-05T09:24:05;101355.91;;;19.32;100.00
23574;BME280;11965;53.640;10.050;2022-08-05T09:26:37;101361.69;;;19.37;100.00
23574;BME280;11965;53.640;10.050;2022-08-05T09:29:05;101359.09;;;19.36;100.00
23574;BME280;11965;53.640;10.050;2022-08-05T09:31:31;101354.94;;;19.38;100.00
23574;BME280;11965;53.640;10.050;2022-08-05T09:34:00;101353.59;;;19.29;100.00
23574;BME280;11965;53.640;10.050;2022-08-05T09:36:46;101354.53;;;19.23;100.00
23574;BME280;11965;53.640;10.050;2022-08-05T09:39:18;101359.66;;;19.26;100.00
23574;BME280;11965;53.640;10.050;2022-08-05T09:41:58;101350.16;;;19.27;100.00
23574;BME280;11965;53.640;10.050;2022-08-05T09:44:39;101347.97;;;19.29;100.00
23574;BME280;11965;53.640;10.050;2022-08-05T09:47:16;101343.81;;;19.32;100.00
23574;BME280;11965;53.640;10.050;2022-08-05T09:50:00;101344.69;;;19.32;100.00
23574;BME280;11965;53.640;10.050;2022-08-05T09:52:30;101332.47;;;19.50;100.00
23574;BME280;11965;53.640;10.050;2022-08-05T09:55:10;101340.00;;;19.68;100.00
23574;BME280;11965;53.640;10.050;2022-08-05T09:57:42;101329.59;;;19.69;100.00
23574;BME280;11965;53.640;10.050;2022-08-05T10:02:40;101321.97;;;19.46;99.53
23574;BME280;11965;53.640;10.050;2022-08-05T10:05:12;101336.34;;;19.26;98.83
23574;BME280;11965;53.640;10.050;2022-08-05T10:07:42;101332.53;;;19.20;100.00
23574;BME280;11965;53.640;10.050;2022-08-05T10:10:08;101339.00;;;19.20;100.00
23574;BME280;11965;53.640;10.050;2022-08-05T10:12:53;101325.75;;;19.51;100.00
23574;BME280;11965;53.640;10.050;2022-08-05T10:20:28;101337.50;;;19.48;100.00
23574;BME280;11965;53.640;10.050;2022-08-05T10:22:53;101351.16;;;19.33;100.00
23574;BME280;11965;53.640;10.050;2022-08-05T10:25:20;101358.09;;;19.30;100.00
23574;BME280;11965;53.640;10.050;2022-08-05T10:27:46;101361.78;;;19.31;100.00
23574;BME280;11965;53.640;10.050;2022-08-05T10:30:12;101363.78;;;19.12;100.00
23574;BME280;11965;53.640;10.050;2022-08-05T10:32:38;101361.31;;;19.04;100.00
23574;BME280;11965;53.640;10.050;2022-08-05T10:35:04;101371.34;;;19.00;100.00
23574;BME280;11965;53.640;10.050;2022-08-05T10:37:30;101365.75;;;19.11;100.00
23574;BME280;11965;53.640;10.050;2022-08-05T10:40:00;101370.91;;;18.84;100.00
23574;BME280;11965;53.640;10.050;2022-08-05T10:42:31;101362.38;;;18.91;100.00
23574;BME280;11965;53.640;10.050;2022-08-05T10:45:02;101365.34;;;18.77;100.00
23574;BME280;11965;53.640;10.050;2022-08-05T10:47:33;101375.66;;;18.84;100.00
23574;BME280;11965;53.640;10.050;2022-08-05T10:50:07;101381.78;;;18.74;100.00
23574;BME280;11965;53.640;10.050;2022-08-05T10:52:40;101388.22;;;18.63;100.00
23574;BME280;11965;53.640;10.050;2022-08-05T10:55:10;101387.03;;;18.52;100.00
23574;BME280;11965;53.640;10.050;2022-08-05T10:57:39;101385.25;;;18.58;100.00
23574;BME280;11965;53.640;10.050;2022-08-05T11:00:13;101392.41;;;18.53;100.00
23574;BME280;11965;53.640;10.050;2022-08-05T11:05:28;101391.50;;;18.60;100.00
23574;BME280;11965;53.640;10.050;2022-08-05T11:07:56;101391.81;;;18.51;100.00
23574;BME280;11965;53.640;10.050;2022-08-05T11:10:25;101409.34;;;18.65;100.00
23574;BME280;11965;53.640;10.050;2022-08-05T11:12:51;101428.84;;;18.60;100.00
23574;BME280;11965;53.640;10.050;2022-08-05T11:15:23;101433.28;;;18.49;100.00
23574;BME280;11965;53.640;10.050;2022-08-05T11:18:11;101444.47;;;18.31;100.00
23574;BME280;11965;53.640;10.050;2022-08-05T11:20:47;101440.88;;;18.05;100.00
23574;BME280;11965;53.640;10.050;2022-08-05T11:23:28;101430.38;;;17.94;100.00
23574;BME280;11965;53.640;10.050;2022-08-05T11:26:04;101423.75;;;17.88;100.00
23574;BME280;11965;53.640;10.050;2022-08-05T11:33:33;101440.53;;;17.95;100.00
23574;BME280;11965;53.640;10.050;2022-08-05T11:36:02;101439.69;;;18.13;100.00
23574;BME280;11965;53.640;10.050;2022-08-05T11:41:04;101439.13;;;18.04;100.00
23574;BME280;11965;53.640;10.050;2022-08-05T11:43:30;101438.91;;;18.06;100.00
23574;BME280;11965;53.640;10.050;2022-08-05T11:45:56;101449.03;;;18.07;100.00
23574;BME280;11965;53.640;10.050;2022-08-05T11:48:22;101467.34;;;18.09;100.00
23574;BME280;11965;53.640;10.050;2022-08-05T11:50:49;101462.22;;;18.06;100.00
23574;BME280;11965;53.640;10.050;2022-08-05T11:53:15;101466.84;;;17.94;100.00
23574;BME280;11965;53.640;10.050;2022-08-05T11:56:00;101474.00;;;17.90;100.00
23574;BME280;11965;53.640;10.050;2022-08-05T11:58:33;101460.03;;;18.08;100.00
23574;BME280;11965;53.640;10.050;2022-08-05T12:01:00;101460.81;;;18.16;100.00
23574;BME280;11965;53.640;10.050;2022-08-05T12:03:26;101476.78;;;18.15;100.00
23574;BME280;11965;53.640;10.050;2022-08-05T12:05:52;101483.50;;;18.14;100.00
23574;BME280;11965;53.640;10.050;2022-08-05T12:08:18;101472.47;;;18.19;100.00
23574;BME280;11965;53.640;10.050;2022-08-05T12:10:44;101475.88;;;18.21;100.00
23574;BME280;11965;53.640;10.050;2022-08-05T12:13:11;101481.13;;;18.36;100.00
23574;BME280;11965;53.640;10.050;2022-08-05T12:15:36;101487.09;;;18.46;100.00
23574;BME280;11965;53.640;10.050;2022-08-05T12:18:01;101480.53;;;18.52;100.00
23574;BME280;11965;53.640;10.050;2022-08-05T12:20:27;101476.31;;;18.62;100.00
23574;BME280;11965;53.640;10.050;2022-08-05T12:23:07;101488.13;;;18.70;100.00
23574;BME280;11965;53.640;10.050;2022-08-05T12:25:53;101494.28;;;18.61;100.00
23574;BME280;11965;53.640;10.050;2022-08-05T12:28:48;101504.56;;;18.67;100.00
23574;BME280;11965;53.640;10.050;2022-08-05T12:31:15;101491.19;;;18.87;100.00
23574;BME280;11965;53.640;10.050;2022-08-05T12:33:43;101494.94;;;19.00;100.00
23574;BME280;11965;53.640;10.050;2022-08-05T12:36:09;101503.34;;;19.18;100.00
23574;BME280;11965;53.640;10.050;2022-08-05T12:38:36;101503.66;;;19.10;100.00
23574;BME280;11965;53.640;10.050;2022-08-05T12:41:06;101503.91;;;19.08;98.93
23574;BME280;11965;53.640;10.050;2022-08-05T12:43:32;101492.38;;;18.98;100.00
23574;BME280;11965;53.640;10.050;2022-08-05T12:45:58;101494.53;;;19.14;99.64
23574;BME280;11965;53.640;10.050;2022-08-05T12:48:24;101492.81;;;19.13;99.15
23574;BME280;11965;53.640;10.050;2022-08-05T12:51:08;101491.09;;;19.12;98.24
23574;BME280;11965;53.640;10.050;2022-08-05T12:53:40;101486.63;;;19.23;98.90
23574;BME280;11965;53.640;10.050;2022-08-05T12:56:23;101499.03;;;19.34;100.00
23574;BME280;11965;53.640;10.050;2022-08-05T12:59:18;101504.72;;;19.46;100.00
23574;BME280;11965;53.640;10.050;2022-08-05T13:04:32;101495.13;;;19.65;98.89
23574;BME280;11965;53.640;10.050;2022-08-05T13:07:01;101488.50;;;19.59;96.59
23574;BME280;11965;53.640;10.050;2022-08-05T13:09:28;101491.66;;;19.81;99.49